createdAt,value
2023-03-05T00:00:32.642Z,20.58
2023-03-05T00:01:35.097Z,20.23
2023-03-05T00:02:37.049Z,20.65
2023-03-05T00:03:39.164Z,20.52
2023-03-05T00:04:41.040Z,19.63
2023-03-05T00:05:42.897Z,20.13
2023-03-05T00:06:45.165Z,18.90
2023-03-05T00:07:48.964Z,19.27
2023-03-05T00:08:51.996Z,19.70
2023-03-05T00:09:53.822Z,20.45
2023-03-05T00:11:00.285Z,20.43
2023-03-05T00:12:02.455Z,20.13
2023-03-05T00:13:04.693Z,19.65
2023-03-05T00:14:06.569Z,20.37
2023-03-05T00:15:09.252Z,19.43
2023-03-05T00:16:13.569Z,19.73
2023-03-05T00:17:15.490Z,19.75
2023-03-05T00:18:17.560Z,19.50
2023-03-05T00:19:19.378Z,19.03
2023-03-05T00:20:21.263Z,18.92
2023-03-05T00:21:26.013Z,19.98
2023-03-05T00:22:27.770Z,19.77
2023-03-05T00:23:29.597Z,19.02
2023-03-05T00:24:31.438Z,18.95
2023-03-05T00:25:35.813Z,19.50
2023-03-05T00:26:39.198Z,19.22
2023-03-05T00:27:41.152Z,19.18
2023-03-05T00:28:42.979Z,19.00
2023-03-05T00:29:44.788Z,18.97
2023-03-05T00:30:46.806Z,19.10
2023-03-05T00:31:49.038Z,18.63
2023-03-05T00:32:50.848Z,18.82
2023-03-05T00:33:54.127Z,19.27
2023-03-05T00:34:56.057Z,19.08
2023-03-05T00:35:59.976Z,19.12
2023-03-05T00:37:02.004Z,19.72
2023-03-05T00:38:03.817Z,19.17
2023-03-05T00:39:05.578Z,19.02
2023-03-05T00:40:08.389Z,18.85
2023-03-05T00:41:10.379Z,18.70
2023-03-05T00:42:12.241Z,19.15
2023-03-05T00:43:14.130Z,19.02
2023-03-05T00:44:15.957Z,18.85
2023-03-05T00:45:17.725Z,18.47
2023-03-05T00:46:19.532Z,18.40
2023-03-05T00:47:21.588Z,19.27
2023-03-05T00:48:23.552Z,17.37
2023-03-05T00:49:25.941Z,18.68
2023-03-05T00:50:28.755Z,18.98
2023-03-05T00:51:30.580Z,18.63
2023-03-05T00:52:32.495Z,19.20
2023-03-05T00:53:34.355Z,18.45
2023-03-05T00:54:36.273Z,18.73
2023-03-05T00:55:38.121Z,18.70
2023-03-05T00:56:40.183Z,18.93
2023-03-05T00:57:42.180Z,19.92
2023-03-05T00:58:44.033Z,19.25
2023-03-05T00:59:45.897Z,19.13
2023-03-05T01:00:50.662Z,19.73
2023-03-05T01:01:52.753Z,19.90
2023-03-05T01:02:54.809Z,19.93
2023-03-05T01:03:57.517Z,20.20
2023-03-05T01:04:59.432Z,19.25
2023-03-05T01:06:03.960Z,20.58
2023-03-05T01:07:05.852Z,19.60
2023-03-05T01:08:07.622Z,20.02
2023-03-05T01:09:09.494Z,19.97
2023-03-05T01:10:12.234Z,19.63
2023-03-05T01:11:14.122Z,20.05
2023-03-05T01:12:15.958Z,19.45
2023-03-05T01:13:18.076Z,19.62
2023-03-05T01:14:21.254Z,19.62
2023-03-05T01:15:24.289Z,20.38
2023-03-05T01:16:26.218Z,20.77
2023-03-05T01:17:28.132Z,20.98
2023-03-05T01:18:30.006Z,20.93
2023-03-05T01:19:32.085Z,20.30
2023-03-05T01:20:34.206Z,21.03
2023-03-05T01:21:37.209Z,20.98
2023-03-05T01:22:39.667Z,20.32
2023-03-05T01:23:41.540Z,19.48
2023-03-05T01:24:43.326Z,19.53
2023-03-05T01:25:45.186Z,19.12
2023-03-05T01:26:47.385Z,18.80
2023-03-05T01:27:49.183Z,18.98
2023-03-05T01:28:50.984Z,18.15
2023-03-05T01:29:52.776Z,18.88
2023-03-05T01:30:54.578Z,18.37
2023-03-05T01:31:56.532Z,18.77
2023-03-05T01:32:58.371Z,18.23
2023-03-05T01:34:00.288Z,18.68
2023-03-05T01:35:03.748Z,18.08
2023-03-05T01:36:13.357Z,18.23
2023-03-05T01:37:15.295Z,18.73
2023-03-05T01:38:17.467Z,19.00
2023-03-05T01:39:19.325Z,18.83
2023-03-05T01:40:26.268Z,18.25
2023-03-05T01:41:28.576Z,17.87
2023-03-05T01:42:30.437Z,19.03
2023-03-05T01:43:32.179Z,18.55
2023-03-05T01:44:35.060Z,18.80
2023-03-05T01:45:36.977Z,18.42
2023-03-05T01:46:39.017Z,18.43
2023-03-05T01:47:40.845Z,18.82
2023-03-05T01:48:44.902Z,18.35
2023-03-05T01:49:46.670Z,18.47
2023-03-05T01:50:49.007Z,18.43
2023-03-05T01:51:50.716Z,17.40
2023-03-05T01:52:59.107Z,18.35
2023-03-05T01:54:03.260Z,18.52
2023-03-05T01:55:13.281Z,18.23
2023-03-05T01:56:16.329Z,19.00
2023-03-05T01:57:23.809Z,18.98
2023-03-05T01:58:26.247Z,19.00
2023-03-05T01:59:28.430Z,19.25
2023-03-05T02:00:37.884Z,19.65
2023-03-05T02:01:44.045Z,19.85
2023-03-05T02:02:50.391Z,19.90
2023-03-05T02:03:52.203Z,19.87
2023-03-05T02:05:27.123Z,19.60
2023-03-05T02:06:29.227Z,19.25
2023-03-05T02:07:31.822Z,19.90
2023-03-05T02:08:33.748Z,19.88
2023-03-05T02:09:39.384Z,19.12
2023-03-05T02:10:44.125Z,19.13
2023-03-05T02:11:46.414Z,19.33
2023-03-05T02:12:49.568Z,19.63
2023-03-05T02:13:51.406Z,19.57
2023-03-05T02:14:59.221Z,19.57
2023-03-05T02:16:01.824Z,19.57
2023-03-05T02:17:03.664Z,19.87
2023-03-05T02:18:06.807Z,20.38
2023-03-05T02:19:11.397Z,19.65
2023-03-05T02:20:17.685Z,19.68
2023-03-05T02:21:37.613Z,19.60
2023-03-05T02:22:39.472Z,19.65
2023-03-05T02:23:41.330Z,19.10
2023-03-05T02:24:43.101Z,20.48
2023-03-05T02:25:45.006Z,20.20
2023-03-05T02:26:47.648Z,20.62
2023-03-05T02:28:12.483Z,19.62
2023-03-05T02:29:18.870Z,18.43
2023-03-05T02:30:21.083Z,19.88
2023-03-05T02:31:24.283Z,19.17
2023-03-05T02:32:26.166Z,19.93
2023-03-05T02:33:28.039Z,19.57
2023-03-05T02:34:29.857Z,19.28
2023-03-05T02:35:31.786Z,19.68
2023-03-05T02:36:33.840Z,19.25
2023-03-05T02:37:35.870Z,19.42
2023-03-05T02:38:39.072Z,20.15
2023-03-05T02:39:41.093Z,20.90
2023-03-05T02:40:43.137Z,20.40
2023-03-05T02:41:44.882Z,20.13
2023-03-05T02:42:46.847Z,19.90
2023-03-05T02:43:48.734Z,19.83
2023-03-05T02:44:50.599Z,19.70
2023-03-05T02:45:52.880Z,20.27
2023-03-05T02:46:54.752Z,19.42
2023-03-05T02:47:56.791Z,19.52
2023-03-05T02:48:58.601Z,20.37
2023-03-05T02:50:00.733Z,19.65
2023-03-05T02:51:03.903Z,19.27
2023-03-05T02:52:06.110Z,19.78
2023-03-05T02:53:07.956Z,19.93
2023-03-05T02:54:09.771Z,19.83
2023-03-05T02:55:11.555Z,19.77
2023-03-05T02:56:13.499Z,19.23
2023-03-05T02:57:16.002Z,19.18
2023-03-05T02:58:18.394Z,19.88
2023-03-05T02:59:20.232Z,20.12
2023-03-05T03:00:22.224Z,20.27
2023-03-05T03:01:24.260Z,19.05
2023-03-05T03:02:26.076Z,19.42
2023-03-05T03:03:27.971Z,20.12
2023-03-05T03:04:29.958Z,20.13
2023-03-05T03:05:31.859Z,20.05
2023-03-05T03:06:33.689Z,19.28
2023-03-05T03:07:36.630Z,20.12
2023-03-05T03:08:38.478Z,20.12
2023-03-05T03:09:40.655Z,19.88
2023-03-05T03:10:42.427Z,19.55
2023-03-05T03:11:44.240Z,19.88
2023-03-05T03:12:46.101Z,19.65
2023-03-05T03:13:47.896Z,20.08
2023-03-05T03:14:49.693Z,19.65
2023-03-05T03:15:51.571Z,18.88
2023-03-05T03:16:53.468Z,20.60
2023-03-05T03:17:55.343Z,20.28
2023-03-05T03:18:57.177Z,20.08
2023-03-05T03:19:59.058Z,20.13
2023-03-05T03:21:01.284Z,20.40
2023-03-05T03:22:03.364Z,19.93
2023-03-05T03:23:05.485Z,20.12
2023-03-05T03:24:07.374Z,19.88
2023-03-05T03:25:10.611Z,19.27
2023-03-05T03:26:12.512Z,20.05
2023-03-05T03:27:14.305Z,19.88
2023-03-05T03:28:16.205Z,19.67
2023-03-05T03:29:18.072Z,20.15
2023-03-05T03:30:20.053Z,19.80
2023-03-05T03:31:22.001Z,20.13
2023-03-05T03:32:23.910Z,19.65
2023-03-05T03:33:25.810Z,19.72
2023-03-05T03:34:27.812Z,19.35
2023-03-05T03:35:29.588Z,20.28
2023-03-05T03:36:32.126Z,20.67
2023-03-05T03:37:34.097Z,20.43
2023-03-05T03:38:36.054Z,20.35
2023-03-05T03:39:37.940Z,20.78
2023-03-05T03:40:41.803Z,20.75
2023-03-05T03:41:45.481Z,20.12
2023-03-05T03:42:47.561Z,20.40
2023-03-05T03:43:49.377Z,20.22
2023-03-05T03:44:51.234Z,20.38
2023-03-05T03:45:53.055Z,20.28
2023-03-05T03:46:55.033Z,19.68
2023-03-05T03:47:56.805Z,19.32
2023-03-05T03:48:58.637Z,19.62
2023-03-05T03:50:00.419Z,20.05
2023-03-05T03:51:04.999Z,19.53
2023-03-05T03:52:07.004Z,19.43
2023-03-05T03:53:09.760Z,20.03
2023-03-05T03:54:11.613Z,20.38
2023-03-05T03:55:13.572Z,20.52
2023-03-05T03:56:15.407Z,19.57
2023-03-05T03:57:17.260Z,20.17
2023-03-05T03:58:19.108Z,19.73
2023-03-05T03:59:21.306Z,20.30
2023-03-05T04:00:24.049Z,20.27
2023-03-05T04:01:25.911Z,19.93
2023-03-05T04:02:28.033Z,20.17
2023-03-05T04:03:29.880Z,20.52
2023-03-05T04:04:31.716Z,20.12
2023-03-05T04:05:33.502Z,21.25
2023-03-05T04:06:35.814Z,21.38
2023-03-05T04:07:37.732Z,34.48
2023-03-05T04:08:40.367Z,84.48
2023-03-05T04:09:42.167Z,97.12
2023-03-05T04:10:44.111Z,90.02
2023-03-05T04:11:45.896Z,82.95
2023-03-05T04:12:47.961Z,44.13
2023-03-05T04:13:50.143Z,39.13
2023-03-05T04:14:51.996Z,38.13
2023-03-05T04:15:54.451Z,35.83
2023-03-05T04:16:56.433Z,33.28
2023-03-05T04:17:58.312Z,24.40
2023-03-05T04:19:00.201Z,25.00
2023-03-05T04:20:02.381Z,21.62
2023-03-05T04:21:04.562Z,20.65
2023-03-05T04:22:09.610Z,22.00
2023-03-05T04:23:11.438Z,27.23
2023-03-05T04:24:13.250Z,22.82
2023-03-05T04:25:15.143Z,26.00
2023-03-05T04:26:17.262Z,26.80
2023-03-05T04:27:19.112Z,24.83
2023-03-05T04:28:21.512Z,23.73
2023-03-05T04:29:23.767Z,23.20
2023-03-05T04:30:25.712Z,22.17
2023-03-05T04:31:27.567Z,21.28
2023-03-05T04:32:30.376Z,21.57
2023-03-05T04:33:32.463Z,20.82
2023-03-05T04:34:34.290Z,20.75
2023-03-05T04:35:36.801Z,20.95
2023-03-05T04:36:38.751Z,21.52
2023-03-05T04:37:40.640Z,21.33
2023-03-05T04:38:42.541Z,22.13
2023-03-05T04:39:44.346Z,21.45
2023-03-05T04:40:46.554Z,21.07
2023-03-05T04:41:48.642Z,20.83
2023-03-05T04:42:50.437Z,22.10
2023-03-05T04:43:52.273Z,21.88
2023-03-05T04:44:54.073Z,21.62
2023-03-05T04:45:56.109Z,21.33
2023-03-05T04:46:57.977Z,22.17
2023-03-05T04:48:00.496Z,22.43
2023-03-05T04:49:02.297Z,22.30
2023-03-05T04:50:05.522Z,22.22
2023-03-05T04:51:07.480Z,22.35
2023-03-05T04:52:14.547Z,21.48
2023-03-05T04:53:16.305Z,21.40
2023-03-05T04:54:18.159Z,21.27
2023-03-05T04:55:20.055Z,21.48
2023-03-05T04:56:21.842Z,21.80
2023-03-05T04:57:24.169Z,22.20
2023-03-05T04:58:25.977Z,22.12
2023-03-05T04:59:27.920Z,21.55
2023-03-05T05:00:29.680Z,22.47
2023-03-05T05:01:33.024Z,22.08
2023-03-05T05:02:34.979Z,21.48
2023-03-05T05:03:36.846Z,21.68
2023-03-05T05:04:38.753Z,21.30
2023-03-05T05:05:40.711Z,21.82
2023-03-05T05:06:42.553Z,20.93
2023-03-05T05:07:44.823Z,20.97
2023-03-05T05:08:46.846Z,20.93
2023-03-05T05:09:48.920Z,20.40
2023-03-05T05:11:02.932Z,21.48
2023-03-05T05:12:05.348Z,20.00
2023-03-05T05:13:07.366Z,20.82
2023-03-05T05:14:09.299Z,20.70
2023-03-05T05:15:12.426Z,20.77
2023-03-05T05:16:15.638Z,21.42
2023-03-05T05:17:17.462Z,21.88
2023-03-05T05:18:19.486Z,21.58
2023-03-05T05:19:21.504Z,19.63
2023-03-05T05:20:23.500Z,20.33
2023-03-05T05:21:25.266Z,21.50
2023-03-05T05:22:28.692Z,21.87
2023-03-05T05:23:30.545Z,21.73
2023-03-05T05:24:32.340Z,21.92
2023-03-05T05:25:34.133Z,19.80
2023-03-05T05:26:35.992Z,20.02
2023-03-05T05:27:43.418Z,20.23
2023-03-05T05:28:45.337Z,19.45
2023-03-05T05:29:50.254Z,20.05
2023-03-05T05:30:52.122Z,19.82
2023-03-05T05:31:54.300Z,19.65
2023-03-05T05:32:56.678Z,18.92
2023-03-05T05:33:58.538Z,18.93
2023-03-05T05:35:00.466Z,18.67
2023-03-05T05:36:04.773Z,18.67
2023-03-05T05:37:06.649Z,19.12
2023-03-05T05:38:08.575Z,18.82
2023-03-05T05:39:11.053Z,18.55
2023-03-05T05:40:13.072Z,18.68
2023-03-05T05:41:17.110Z,18.93
2023-03-05T05:42:21.619Z,17.80
2023-03-05T05:43:23.485Z,18.20
2023-03-05T05:44:25.210Z,18.32
2023-03-05T05:45:27.200Z,18.05
2023-03-05T05:46:29.240Z,18.47
2023-03-05T05:47:31.640Z,17.97
2023-03-05T05:48:35.752Z,18.38
2023-03-05T05:49:37.666Z,18.42
2023-03-05T05:50:39.638Z,18.67
2023-03-05T05:51:41.428Z,18.80
2023-03-05T05:52:43.244Z,18.33
2023-03-05T05:53:45.764Z,18.25
2023-03-05T05:54:47.926Z,18.67
2023-03-05T05:55:49.860Z,19.55
2023-03-05T05:56:51.755Z,18.63
2023-03-05T05:57:53.594Z,19.78
2023-03-05T05:58:55.441Z,20.10
2023-03-05T05:59:57.336Z,21.13
2023-03-05T06:00:59.263Z,20.77
2023-03-05T06:02:01.095Z,19.33
2023-03-05T06:03:04.133Z,17.92
2023-03-05T06:04:05.969Z,18.40
2023-03-05T06:05:09.787Z,18.92
2023-03-05T06:06:13.553Z,18.22
2023-03-05T06:07:15.346Z,17.75
2023-03-05T06:08:17.374Z,17.93
2023-03-05T06:09:19.278Z,17.93
2023-03-05T06:10:21.429Z,17.22
2023-03-05T06:11:23.253Z,17.05
2023-03-05T06:12:25.026Z,16.80
2023-03-05T06:13:26.823Z,16.78
2023-03-05T06:14:28.654Z,16.47
2023-03-05T06:15:30.997Z,17.08
2023-03-05T06:16:32.870Z,17.28
2023-03-05T06:17:35.004Z,17.02
2023-03-05T06:18:36.754Z,16.67
2023-03-05T06:19:38.566Z,17.00
2023-03-05T06:20:40.414Z,17.67
2023-03-05T06:21:43.890Z,16.53
2023-03-05T06:22:45.630Z,16.67
2023-03-05T06:23:48.571Z,17.20
2023-03-05T06:24:50.449Z,16.52
2023-03-05T06:25:53.488Z,16.68
2023-03-05T06:26:55.387Z,16.40
2023-03-05T06:27:57.146Z,16.70
2023-03-05T06:28:59.274Z,16.90
2023-03-05T06:30:01.343Z,17.52
2023-03-05T06:31:05.818Z,17.83
2023-03-05T06:32:07.763Z,18.50
2023-03-05T06:33:09.559Z,18.10
2023-03-05T06:34:12.510Z,17.90
2023-03-05T06:35:14.410Z,17.82
2023-03-05T06:36:19.186Z,16.93
2023-03-05T06:37:21.066Z,16.98
2023-03-05T06:38:22.957Z,17.17
2023-03-05T06:39:24.710Z,17.25
2023-03-05T06:40:26.773Z,17.17
2023-03-05T06:41:30.518Z,17.02
2023-03-05T06:42:32.248Z,17.60
2023-03-05T06:43:35.547Z,18.50
2023-03-05T06:44:41.167Z,21.27
2023-03-05T06:45:43.048Z,20.07
2023-03-05T06:46:44.983Z,18.05
2023-03-05T06:47:46.857Z,18.88
2023-03-05T06:48:49.408Z,18.42
2023-03-05T06:49:51.274Z,17.05
2023-03-05T06:50:53.206Z,17.42
2023-03-05T06:51:55.425Z,17.28
2023-03-05T06:52:57.609Z,17.78
2023-03-05T06:54:05.399Z,17.63
2023-03-05T06:55:08.241Z,18.87
2023-03-05T06:56:10.285Z,19.50
2023-03-05T06:57:13.606Z,19.48
2023-03-05T06:58:15.484Z,19.53
2023-03-05T06:59:17.633Z,19.97
2023-03-05T07:00:19.878Z,20.02
2023-03-05T07:01:22.116Z,19.90
2023-03-05T07:02:24.456Z,18.55
2023-03-05T07:03:26.258Z,19.28
2023-03-05T07:04:29.144Z,19.00
2023-03-05T07:05:32.115Z,18.88
2023-03-05T07:06:38.227Z,18.82
2023-03-05T07:07:40.327Z,18.68
2023-03-05T07:08:44.744Z,19.58
2023-03-05T07:09:48.143Z,21.52
2023-03-05T07:10:49.955Z,20.58
2023-03-05T07:11:51.735Z,20.62
2023-03-05T07:12:53.649Z,21.13
2023-03-05T07:13:55.654Z,20.32
2023-03-05T07:14:57.704Z,20.55
2023-03-05T07:15:59.545Z,20.90
2023-03-05T07:17:01.468Z,20.95
2023-03-05T07:18:03.281Z,20.22
2023-03-05T07:19:07.459Z,19.70
2023-03-05T07:20:09.978Z,19.90
2023-03-05T07:21:16.416Z,18.95
2023-03-05T07:22:18.384Z,18.57
2023-03-05T07:23:20.492Z,19.07
2023-03-05T07:24:24.318Z,19.12
2023-03-05T07:25:26.397Z,19.75
2023-03-05T07:26:29.105Z,18.88
2023-03-05T07:27:31.025Z,19.50
2023-03-05T07:28:34.111Z,18.87
2023-03-05T07:29:36.176Z,17.68
2023-03-05T07:30:38.133Z,18.03
2023-03-05T07:31:40.050Z,18.62
2023-03-05T07:32:42.186Z,18.50
2023-03-05T07:33:44.061Z,17.97
2023-03-05T07:34:46.115Z,17.42
2023-03-05T07:35:48.007Z,17.10
2023-03-05T07:36:54.060Z,18.25
2023-03-05T07:37:56.023Z,17.75
2023-03-05T07:38:58.079Z,18.98
2023-03-05T07:40:00.170Z,19.00
2023-03-05T07:41:08.074Z,18.28
2023-03-05T07:42:10.008Z,18.72
2023-03-05T07:43:12.079Z,19.10
2023-03-05T07:44:14.034Z,20.07
2023-03-05T07:45:15.883Z,20.23
2023-03-05T07:46:19.762Z,19.72
2023-03-05T07:47:23.334Z,20.05
2023-03-05T07:48:25.853Z,19.12
2023-03-05T07:49:27.651Z,18.75
2023-03-05T07:50:29.534Z,20.45
2023-03-05T07:51:31.520Z,20.12
2023-03-05T07:52:33.359Z,20.45
2023-03-05T07:53:35.112Z,19.28
2023-03-05T07:54:38.932Z,18.55
2023-03-05T07:55:47.136Z,18.42
2023-03-05T07:56:48.952Z,18.43
2023-03-05T07:57:50.869Z,18.65
2023-03-05T07:58:53.289Z,19.65
2023-03-05T07:59:55.445Z,19.85
2023-03-05T08:00:57.294Z,19.32
2023-03-05T08:01:59.803Z,18.72
2023-03-05T08:03:01.629Z,18.22
2023-03-05T08:04:05.128Z,18.70
2023-03-05T08:05:07.317Z,19.82
2023-03-05T08:06:12.387Z,21.35
2023-03-05T08:07:16.014Z,20.58
2023-03-05T08:08:18.694Z,19.37
2023-03-05T08:09:20.529Z,19.98
2023-03-05T08:10:22.296Z,21.10
2023-03-05T08:11:24.326Z,20.07
2023-03-05T08:12:26.151Z,19.80
2023-03-05T08:13:27.971Z,19.92
2023-03-05T08:14:29.857Z,19.93
2023-03-05T08:15:34.581Z,20.37
2023-03-05T08:16:36.433Z,21.22
2023-03-05T08:17:38.245Z,20.65
2023-03-05T08:18:40.180Z,21.05
2023-03-05T08:19:42.149Z,20.67
2023-03-05T08:20:43.955Z,18.12
2023-03-05T08:21:46.818Z,18.38
2023-03-05T08:22:48.909Z,18.45
2023-03-05T08:23:50.683Z,18.18
2023-03-05T08:24:52.574Z,19.37
2023-03-05T08:25:54.968Z,19.45
2023-03-05T08:26:57.781Z,19.17
2023-03-05T08:28:00.243Z,18.57
2023-03-05T08:29:03.250Z,18.60
2023-03-05T08:30:05.751Z,18.20
2023-03-05T08:31:11.958Z,18.90
2023-03-05T08:32:13.839Z,18.72
2023-03-05T08:33:17.634Z,17.60
2023-03-05T08:34:22.551Z,17.97
2023-03-05T08:35:24.743Z,18.35
2023-03-05T08:36:27.107Z,17.77
2023-03-05T08:37:28.952Z,17.63
2023-03-05T08:38:30.879Z,18.42
2023-03-05T08:39:32.782Z,18.02
2023-03-05T08:40:34.792Z,18.30
2023-03-05T08:41:36.713Z,18.45
2023-03-05T08:42:38.540Z,17.28
2023-03-05T08:43:40.375Z,17.98
2023-03-05T08:44:42.231Z,19.90
2023-03-05T08:45:43.988Z,19.18
2023-03-05T08:46:45.840Z,18.17
2023-03-05T08:47:47.653Z,18.73
2023-03-05T08:48:50.044Z,19.62
2023-03-05T08:49:55.546Z,20.00
2023-03-05T08:50:58.237Z,19.40
2023-03-05T08:51:59.992Z,19.48
2023-03-05T08:53:02.255Z,20.00
2023-03-05T08:54:07.008Z,19.37
2023-03-05T08:55:09.361Z,19.23
2023-03-05T08:56:11.402Z,19.52
2023-03-05T08:57:13.239Z,18.90
2023-03-05T08:58:15.148Z,19.25
2023-03-05T08:59:17.136Z,20.63
2023-03-05T09:00:19.400Z,21.57
2023-03-05T09:01:22.550Z,20.27
2023-03-05T09:02:24.432Z,20.08
2023-03-05T09:03:26.865Z,20.22
2023-03-05T09:04:28.733Z,19.43
2023-03-05T09:05:30.498Z,19.77
2023-03-05T09:06:34.428Z,21.23
2023-03-05T09:07:37.906Z,21.17
2023-03-05T09:08:40.142Z,21.18
2023-03-05T09:09:41.979Z,19.90
2023-03-05T09:10:45.319Z,20.32
2023-03-05T09:11:47.581Z,21.40
2023-03-05T09:12:49.696Z,20.18
2023-03-05T09:13:51.876Z,20.20
2023-03-05T09:14:56.928Z,20.42
2023-03-05T09:16:01.114Z,20.65
2023-03-05T09:17:02.983Z,20.40
2023-03-05T09:18:05.475Z,20.70
2023-03-05T09:19:12.776Z,20.50
2023-03-05T09:20:17.485Z,20.85
2023-03-05T09:21:19.550Z,21.37
2023-03-05T09:22:22.049Z,21.15
2023-03-05T09:23:24.104Z,21.07
2023-03-05T09:24:26.086Z,21.57
2023-03-05T09:25:27.957Z,21.65
2023-03-05T09:26:29.850Z,23.00
2023-03-05T09:27:36.729Z,21.70
2023-03-05T09:28:39.482Z,21.02
2023-03-05T09:29:43.144Z,19.33
2023-03-05T09:30:45.126Z,18.67
2023-03-05T09:31:50.993Z,19.45
2023-03-05T09:32:53.221Z,20.07
2023-03-05T09:33:55.020Z,21.13
2023-03-05T09:34:57.260Z,19.85
2023-03-05T09:36:00.179Z,21.05
2023-03-05T09:37:03.316Z,21.12
2023-03-05T09:38:05.310Z,21.62
2023-03-05T09:39:07.305Z,24.12
2023-03-05T09:40:15.057Z,28.60
2023-03-05T09:43:41.904Z,25.80
2023-03-05T09:44:55.935Z,23.30
2023-03-05T09:46:03.127Z,23.45
2023-03-05T09:47:42.266Z,23.55
2023-03-05T09:48:53.730Z,23.18
2023-03-05T09:50:03.906Z,23.22
2023-03-05T09:51:13.242Z,22.98
2023-03-05T09:52:35.124Z,21.02
2023-03-05T09:54:11.083Z,21.65
2023-03-05T09:55:27.501Z,21.82
2023-03-05T09:56:40.057Z,22.55
2023-03-05T09:57:46.181Z,22.52
2023-03-05T09:58:56.104Z,22.65
2023-03-05T10:00:00.208Z,23.15
2023-03-05T10:01:11.277Z,22.38
2023-03-05T10:02:19.999Z,21.83
2023-03-05T10:03:43.613Z,22.80
2023-03-05T10:04:49.556Z,21.12
2023-03-05T10:06:04.199Z,22.45
2023-03-05T10:07:12.360Z,22.07
2023-03-05T10:08:18.133Z,22.70
2023-03-05T10:09:38.961Z,21.02
2023-03-05T10:10:44.346Z,22.23
2023-03-05T10:12:04.663Z,22.07
2023-03-05T10:13:35.395Z,22.47
2023-03-05T10:14:40.277Z,21.82
2023-03-05T10:15:54.821Z,21.02
2023-03-05T10:17:22.157Z,21.40
2023-03-05T10:18:30.001Z,19.27
2023-03-05T10:19:45.773Z,20.97
2023-03-05T10:21:04.126Z,20.23
2023-03-05T10:22:22.028Z,21.42
2023-03-05T10:24:02.403Z,21.47
2023-03-05T10:25:21.768Z,21.17
2023-03-05T10:26:28.468Z,21.57
2023-03-05T10:27:40.202Z,22.65
2023-03-05T10:29:12.788Z,20.68
2023-03-05T10:30:27.056Z,20.32
2023-03-05T10:31:38.171Z,20.50
2023-03-05T10:33:07.219Z,19.50
2023-03-05T10:34:22.601Z,19.27
2023-03-05T10:35:55.172Z,17.52
2023-03-05T10:37:11.965Z,21.00
2023-03-05T10:38:16.581Z,18.77
2023-03-05T10:39:33.156Z,18.88
2023-03-05T10:40:47.247Z,22.68
2023-03-05T10:41:54.199Z,19.88
2023-03-05T10:43:05.742Z,19.72
2023-03-05T10:44:26.687Z,18.38
2023-03-05T10:45:35.192Z,19.68
2023-03-05T10:46:38.631Z,20.30
2023-03-05T10:47:48.309Z,18.32
2023-03-05T10:49:04.022Z,17.73
2023-03-05T10:50:20.598Z,18.82
2023-03-05T10:51:36.681Z,19.60
2023-03-05T10:52:41.376Z,21.02
2023-03-05T10:53:56.538Z,21.03
2023-03-05T10:54:58.441Z,19.45
2023-03-05T10:56:05.064Z,18.02
2023-03-05T10:57:22.885Z,18.27
2023-03-05T10:58:25.421Z,18.90
2023-03-05T10:59:28.149Z,18.57
2023-03-05T11:00:32.373Z,18.03
2023-03-05T11:01:34.614Z,17.75
2023-03-05T11:02:54.367Z,17.02
2023-03-05T11:04:01.260Z,16.67
2023-03-05T11:05:05.140Z,16.08
2023-03-05T11:06:07.071Z,14.60
2023-03-05T11:07:30.613Z,15.75
2023-03-05T11:08:34.387Z,16.15
2023-03-05T11:09:36.282Z,15.43
2023-03-05T11:10:38.080Z,18.02
2023-03-05T11:11:39.909Z,19.13
2023-03-05T11:12:42.256Z,17.57
2023-03-05T11:14:04.411Z,17.35
2023-03-05T11:15:09.235Z,19.68
2023-03-05T11:16:21.119Z,21.07
2023-03-05T11:17:23.239Z,18.72
2023-03-05T11:18:25.139Z,18.47
2023-03-05T11:19:29.938Z,20.13
2023-03-05T11:20:36.314Z,21.27
2023-03-05T11:21:38.137Z,19.90
2023-03-05T11:22:39.977Z,20.08
2023-03-05T11:23:42.032Z,18.87
2023-03-05T11:24:46.718Z,18.80
2023-03-05T11:25:57.345Z,18.63
2023-03-05T11:26:59.675Z,17.90
2023-03-05T11:28:03.698Z,20.17
2023-03-05T11:29:18.084Z,19.90
2023-03-05T11:30:32.385Z,17.00
2023-03-05T11:31:34.931Z,17.78
2023-03-05T11:32:37.009Z,20.23
2023-03-05T11:33:39.292Z,25.82
2023-03-05T11:34:41.477Z,19.48
2023-03-05T11:35:44.468Z,18.85
2023-03-05T11:36:58.402Z,18.30
2023-03-05T11:38:02.316Z,17.90
2023-03-05T11:39:10.520Z,17.00
2023-03-05T11:40:25.091Z,16.48
2023-03-05T11:41:42.492Z,18.55
2023-03-05T11:42:45.371Z,17.45
2023-03-05T11:43:49.722Z,18.82
2023-03-05T11:44:55.767Z,17.42
2023-03-05T11:46:03.138Z,17.77
2023-03-05T11:47:36.314Z,16.90
2023-03-05T11:48:40.111Z,28.17
2023-03-05T11:49:46.703Z,23.22
2023-03-05T11:51:02.381Z,25.47
2023-03-05T11:52:13.100Z,23.57
2023-03-05T11:53:25.194Z,21.28
2023-03-05T11:54:36.910Z,21.00
2023-03-05T11:56:01.862Z,21.35
2023-03-05T11:57:03.947Z,22.95
2023-03-05T11:58:27.730Z,21.05
2023-03-05T11:59:33.873Z,18.18
2023-03-05T12:00:37.773Z,20.53
2023-03-05T12:01:47.791Z,19.42
2023-03-05T12:02:53.550Z,19.28
2023-03-05T12:03:56.337Z,19.02
2023-03-05T12:05:00.025Z,17.48
2023-03-05T12:06:16.469Z,16.17
2023-03-05T12:07:38.258Z,17.32
2023-03-05T12:08:45.151Z,17.47
2023-03-05T12:09:49.844Z,16.97
2023-03-05T12:10:52.569Z,18.03
2023-03-05T12:12:04.870Z,18.35
2023-03-05T12:13:20.227Z,21.07
2023-03-05T12:14:29.771Z,24.57
2023-03-05T12:15:41.070Z,20.38
2023-03-05T12:16:59.801Z,24.32
2023-03-05T12:18:11.798Z,21.98
2023-03-05T12:20:01.588Z,26.67
2023-03-05T12:21:14.381Z,24.25
2023-03-05T12:22:34.512Z,53.30
2023-03-05T12:23:48.602Z,51.07
2023-03-05T12:24:51.587Z,71.78
2023-03-05T12:25:53.344Z,35.88
2023-03-05T12:27:04.348Z,26.28
2023-03-05T12:28:15.262Z,31.27
2023-03-05T12:29:47.544Z,22.22
2023-03-05T12:30:49.273Z,18.95
2023-03-05T12:31:51.136Z,19.75
2023-03-05T12:32:54.041Z,19.83
2023-03-05T12:33:55.864Z,20.15
2023-03-05T12:35:04.439Z,19.23
2023-03-05T12:36:21.496Z,16.72
2023-03-05T12:37:23.570Z,16.60
2023-03-05T12:38:31.641Z,16.58
2023-03-05T12:39:52.596Z,17.48
2023-03-05T12:41:23.251Z,14.75
2023-03-05T12:42:28.309Z,16.38
2023-03-05T12:43:32.777Z,15.78
2023-03-05T12:44:35.545Z,15.08
2023-03-05T12:45:39.667Z,18.12
2023-03-05T12:46:46.065Z,16.07
2023-03-05T12:48:12.786Z,18.40
2023-03-05T12:49:20.641Z,24.48
2023-03-05T12:50:28.516Z,17.90
2023-03-05T12:51:34.277Z,16.50
2023-03-05T12:52:45.934Z,15.68
2023-03-05T12:53:51.596Z,16.40
2023-03-05T12:55:20.289Z,15.88
2023-03-05T12:56:26.983Z,18.23
2023-03-05T12:57:31.318Z,17.95
2023-03-05T12:58:43.772Z,18.32
2023-03-05T12:59:59.851Z,17.88
2023-03-05T13:01:36.823Z,19.22
2023-03-05T13:02:43.016Z,18.22
2023-03-05T13:03:56.070Z,40.55
2023-03-05T13:05:01.555Z,42.42
2023-03-05T13:06:06.576Z,24.47
2023-03-05T13:07:15.410Z,18.53
2023-03-05T13:08:35.344Z,18.18
2023-03-05T13:09:37.174Z,15.45
2023-03-05T13:10:40.234Z,16.05
2023-03-05T13:11:47.733Z,15.28
2023-03-05T13:12:54.774Z,14.57
2023-03-05T13:13:57.369Z,13.33
2023-03-05T13:15:05.189Z,14.85
2023-03-05T13:16:17.921Z,15.35
2023-03-05T13:17:27.765Z,15.98
2023-03-05T13:18:32.820Z,15.43
2023-03-05T13:19:36.118Z,16.63
2023-03-05T13:20:42.733Z,16.50
2023-03-05T13:21:45.209Z,15.65
2023-03-05T13:22:47.311Z,16.82
2023-03-05T13:23:57.908Z,17.87
2023-03-05T13:25:13.212Z,17.72
2023-03-05T13:26:18.934Z,17.40
2023-03-05T13:27:32.128Z,17.70
2023-03-05T13:28:34.029Z,17.05
2023-03-05T13:29:36.107Z,18.65
2023-03-05T13:30:38.238Z,18.95
2023-03-05T13:31:50.206Z,19.78
2023-03-05T13:32:53.262Z,18.62
2023-03-05T13:33:58.047Z,18.47
2023-03-05T13:35:01.342Z,20.45
2023-03-05T13:36:04.916Z,22.28
2023-03-05T13:37:13.969Z,22.88
2023-03-05T13:38:26.979Z,19.88
2023-03-05T13:39:35.685Z,19.52
2023-03-05T13:40:38.963Z,18.38
2023-03-05T13:41:41.074Z,19.12
2023-03-05T13:42:43.174Z,18.10
2023-03-05T13:44:00.182Z,19.52
2023-03-05T13:45:04.856Z,20.63
2023-03-05T13:46:06.923Z,18.98
2023-03-05T13:47:15.325Z,18.00
2023-03-05T13:48:20.109Z,17.97
2023-03-05T13:49:27.832Z,20.98
2023-03-05T13:50:33.184Z,22.65
2023-03-05T13:51:43.328Z,23.12
2023-03-05T13:52:45.271Z,26.82
2023-03-05T13:53:48.567Z,46.13
2023-03-05T13:54:50.493Z,40.50
2023-03-05T13:56:14.623Z,30.08
2023-03-05T13:57:53.739Z,25.70